Time;durP1;ratioP1;P1;durP2;ratioP2;P2;SDS_P1;SDS_P2;PMS_P1;PMS_P2;Temp;Humidity;BMP_temperature;BMP_pressure;BME280_temperature;BME280_humidity;BME280_pressure;Samples;Min_cycle;Max_cycle;Signal;HPM_P1;HPM_P2
2022/09/04 00:00:09;;;;;;;0.00;0.00;;;24.30;51.00;;;;;;4159895;28;20094;-64
2022/09/04 00:03:14;;;;;;;0.00;0.00;;;24.30;50.30;;;;;;4123881;28;20149;-64
2022/09/04 00:06:08;;;;;;;0.00;0.00;;;24.30;50.30;;;;;;4148658;28;20434;-64
2022/09/04 00:09:04;;;;;;;0.00;0.00;;;24.30;50.50;;;;;;4170436;28;20064;-63
2022/09/04 00:11:57;;;;;;;0.00;0.00;;;24.20;50.40;;;;;;4163792;28;20145;-64
2022/09/04 00:14:45;;;;;;;0.00;0.00;;;24.20;50.30;;;;;;4171904;28;20064;-63
2022/09/04 00:17:42;;;;;;;0.65;0.65;;;24.30;50.40;;;;;;4171823;28;20086;-63
2022/09/04 00:20:41;;;;;;;0.00;0.00;;;24.20;50.50;;;;;;4150573;28;20055;-63
2022/09/04 00:23:37;;;;;;;0.00;0.00;;;24.20;50.40;;;;;;4165982;28;20064;-64
2022/09/04 00:26:41;;;;;;;0.00;0.00;;;24.20;50.30;;;;;;4143060;28;20052;-63
2022/09/04 00:29:34;;;;;;;0.38;0.38;;;24.20;50.40;;;;;;4169030;28;20068;-66
2022/09/04 00:32:33;;;;;;;0.00;0.00;;;24.20;50.40;;;;;;4152224;28;20060;-63
2022/09/04 00:35:30;;;;;;;0.20;0.20;;;24.20;50.40;;;;;;4149224;28;20056;-64
2022/09/04 00:38:30;;;;;;;0.00;0.00;;;24.10;50.40;;;;;;4125566;28;20073;-63
2022/09/04 00:41:24;;;;;;;0.00;0.00;;;24.10;50.50;;;;;;4173493;28;20552;-63
2022/09/04 00:44:44;;;;;;;0.10;0.10;;;24.10;50.50;;;;;;4175335;28;20095;-63
2022/09/04 00:48:04;;;;;;;6.32;0.73;;;24.10;50.40;;;;;;4159281;28;20108;-63
2022/09/04 00:51:20;;;;;;;0.20;0.20;;;24.10;50.50;;;;;;4173002;28;20060;-63
2022/09/04 00:54:33;;;;;;;0.00;0.00;;;24.10;50.50;;;;;;4174742;28;20526;-63
2022/09/04 00:58:01;;;;;;;0.00;0.00;;;24.10;50.40;;;;;;4151690;28;20136;-63
2022/09/04 01:01:14;;;;;;;0.00;0.00;;;24.10;50.50;;;;;;4146984;28;20056;-63
2022/09/04 01:04:23;;;;;;;0.00;0.00;;;24.10;50.40;;;;;;4166117;28;20125;-62
2022/09/04 01:07:32;;;;;;;0.00;0.00;;;24.00;50.30;;;;;;4143070;28;20496;-63
2022/09/04 01:10:47;;;;;;;0.00;0.00;;;24.00;50.40;;;;;;4137705;28;20113;-63
2022/09/04 01:14:04;;;;;;;0.00;0.00;;;24.00;50.40;;;;;;4135304;28;20483;-63
2022/09/04 01:17:26;;;;;;;0.00;0.00;;;24.00;50.60;;;;;;4150942;28;20191;-62
2022/09/04 01:20:22;;;;;;;0.00;0.00;;;24.00;50.60;;;;;;4147235;28;20059;-62
2022/09/04 01:23:47;;;;;;;0.00;0.00;;;24.00;50.60;;;;;;4158953;28;20086;-63
2022/09/04 01:30:41;;;;;;;0.30;0.30;;;24.00;50.60;;;;;;4055665;28;20103;-63
2022/09/04 01:34:29;;;;;;;0.00;0.00;;;24.00;50.60;;;;;;4094634;28;20067;-63
2022/09/04 01:38:03;;;;;;;0.13;0.10;;;23.90;50.60;;;;;;4171306;28;20068;-63
2022/09/04 01:41:18;;;;;;;0.52;0.52;;;23.90;50.70;;;;;;4164491;28;20216;-62
2022/09/04 01:44:36;;;;;;;0.22;0.22;;;23.90;50.60;;;;;;4139178;28;20059;-63
2022/09/04 01:47:40;;;;;;;0.00;0.00;;;23.90;50.70;;;;;;4120189;28;20060;-63
2022/09/04 01:50:32;;;;;;;0.00;0.00;;;23.90;50.60;;;;;;4140737;28;20045;-62
2022/09/04 01:53:30;;;;;;;0.00;0.00;;;23.90;50.80;;;;;;4130120;28;20526;-63
2022/09/04 01:56:46;;;;;;;0.10;0.10;;;23.90;50.60;;;;;;4119154;28;20068;-62
2022/09/04 01:59:53;;;;;;;0.00;0.00;;;23.80;50.60;;;;;;4144498;28;20498;-64
2022/09/04 02:03:38;;;;;;;0.10;0.10;;;23.90;50.70;;;;;;4147723;28;20079;-63
2022/09/04 02:07:09;;;;;;;0.00;0.00;;;23.80;50.70;;;;;;4155165;28;20056;-63
2022/09/04 02:10:09;;;;;;;1.65;1.45;;;23.80;50.80;;;;;;4133340;28;20051;-63
2022/09/04 02:17:17;;;;;;;0.00;0.00;;;23.80;50.80;;;;;;4105930;28;20494;-62
2022/09/04 02:20:16;;;;;;;0.35;0.35;;;23.80;50.80;;;;;;4154633;28;20056;-63
2022/09/04 02:23:31;;;;;;;0.00;0.00;;;23.80;50.80;;;;;;4121712;28;20045;-63
2022/09/04 02:26:39;;;;;;;0.10;0.10;;;23.80;50.80;;;;;;4120404;28;20195;-63
2022/09/04 02:30:10;;;;;;;;;;;;;;;;;;;;;
2022/09/04 02:33:43;;;;;;;0.00;0.00;;;23.70;50.80;;;;;;4145364;28;20052;-62
2022/09/04 02:36:59;;;;;;;0.10;0.10;;;23.70;50.70;;;;;;4144399;28;20133;-62
2022/09/04 02:40:19;;;;;;;6.28;1.23;;;23.70;50.70;;;;;;4147434;28;20116;-63
2022/09/04 02:44:07;;;;;;;0.00;0.00;;;23.70;50.80;;;;;;4137391;28;20048;-63
2022/09/04 02:47:24;;;;;;;;;;;;;;;;;;;;;
2022/09/04 02:50:29;;;;;;;0.00;0.00;;;23.70;50.80;;;;;;4153010;28;20055;-62
2022/09/04 02:57:38;;;;;;;0.00;0.00;;;23.60;50.80;;;;;;4064066;28;20089;-62
2022/09/04 03:01:05;;;;;;;0.00;0.00;;;23.60;50.80;;;;;;4145495;28;20625;-62
2022/09/04 03:04:07;;;;;;;0.00;0.00;;;23.60;50.80;;;;;;4129598;28;20435;-63
2022/09/04 03:07:37;;;;;;;0.00;0.00;;;23.60;50.80;;;;;;4105808;28;20181;-63
2022/09/04 03:10:55;;;;;;;0.00;0.00;;;23.60;50.80;;;;;;4125728;28;20181;-63
2022/09/04 03:14:09;;;;;;;0.00;0.00;;;23.60;50.80;;;;;;4102167;28;20053;-62
2022/09/04 03:17:24;;;;;;;0.00;0.00;;;23.60;50.80;;;;;;4132844;28;20160;-63
2022/09/04 03:21:11;;;;;;;0.00;0.00;;;23.60;50.90;;;;;;4121766;28;20056;-62
2022/09/04 03:25:34;;;;;;;0.00;0.00;;;23.50;50.80;;;;;;4150281;28;20123;-63
2022/09/04 03:28:50;;;;;;;0.10;0.10;;;23.50;50.80;;;;;;4122073;28;20052;-65
2022/09/04 03:31:53;;;;;;;0.00;0.00;;;23.50;50.80;;;;;;4146403;28;20123;-62
2022/09/04 03:38:51;;;;;;;0.00;0.00;;;23.50;50.90;;;;;;4158045;28;20064;-62
2022/09/04 03:42:24;;;;;;;0.00;0.00;;;23.50;50.90;;;;;;4135249;28;20056;-62
2022/09/04 03:46:04;;;;;;;0.00;0.00;;;23.40;50.90;;;;;;4128486;28;20064;-62
2022/09/04 03:52:52;;;;;;;0.43;0.43;;;23.40;50.80;;;;;;4138341;28;20048;-63
2022/09/04 04:00:11;;;;;;;0.30;0.22;;;23.40;50.90;;;;;;4092084;28;20451;-62
2022/09/04 04:03:30;;;;;;;0.00;0.00;;;23.40;51.00;;;;;;4125084;28;20064;-62
2022/09/04 04:07:06;;;;;;;0.00;0.00;;;23.30;51.00;;;;;;4129966;28;20511;-63
2022/09/04 04:13:36;;;;;;;0.00;0.00;;;23.30;51.10;;;;;;4105976;28;20179;-63
2022/09/04 04:17:13;;;;;;;0.10;0.10;;;23.30;51.00;;;;;;4098871;28;20053;-62
2022/09/04 04:20:23;;;;;;;0.00;0.00;;;23.30;51.00;;;;;;4110213;28;20052;-62
2022/09/04 04:23:55;;;;;;;0.00;0.00;;;23.30;51.00;;;;;;4152610;28;20103;-62
2022/09/04 04:27:06;;;;;;;0.00;0.00;;;23.30;51.00;;;;;;4116920;28;20056;-62
2022/09/04 04:30:11;;;;;;;0.00;0.00;;;23.30;51.00;;;;;;4124136;28;20139;-62
2022/09/04 04:37:58;;;;;;;0.00;0.00;;;23.20;51.00;;;;;;4084647;28;20080;-63
2022/09/04 04:42:10;;;;;;;0.00;0.00;;;23.20;51.00;;;;;;4154185;28;20071;-63
2022/09/04 04:49:32;;;;;;;0.00;0.00;;;23.20;51.10;;;;;;4166506;28;20420;-63
2022/09/04 04:52:56;;;;;;;0.00;0.00;;;23.20;51.20;;;;;;4155557;28;20102;-64
2022/09/04 04:56:13;;;;;;;0.03;0.03;;;23.20;51.20;;;;;;4106590;28;20103;-63
2022/09/04 04:59:22;;;;;;;0.00;0.00;;;23.10;51.10;;;;;;4160316;28;20056;-64
2022/09/04 05:02:35;;;;;;;0.30;0.30;;;23.10;51.10;;;;;;4136691;28;20159;-63
2022/09/04 05:05:58;;;;;;;0.00;0.00;;;23.10;51.20;;;;;;4133476;28;20076;-64
2022/09/04 05:09:08;;;;;;;0.00;0.00;;;23.10;51.20;;;;;;4154383;28;20126;-64
2022/09/04 05:15:38;;;;;;;0.00;0.00;;;23.10;51.20;;;;;;4122809;28;20118;-64
2022/09/04 05:18:50;;;;;;;0.03;0.03;;;23.10;51.20;;;;;;4134369;28;20523;-65
2022/09/04 05:22:43;;;;;;;0.15;0.15;;;23.00;51.20;;;;;;4151459;28;20056;-63
2022/09/04 05:26:10;;;;;;;0.00;0.00;;;23.00;51.30;;;;;;4097243;28;20184;-64
2022/09/04 05:29:27;;;;;;;0.00;0.00;;;23.00;51.30;;;;;;4128213;28;20061;-63
2022/09/04 05:37:03;;;;;;;;;;;;;;;;;;;;;
2022/09/04 05:49:10;;;;;;;0.00;0.00;;;22.90;51.50;;;;;;4061827;28;20065;-63
2022/09/04 05:52:58;;;;;;;0.00;0.00;;;23.00;51.50;;;;;;4136542;28;20180;-63
2022/09/04 05:56:21;;;;;;;0.00;0.00;;;22.90;51.50;;;;;;4124475;28;20052;-63
2022/09/04 05:59:42;;;;;;;0.00;0.00;;;22.90;51.50;;;;;;4087659;28;20053;-64
2022/09/04 06:10:53;;;;;;;0.00;0.00;;;22.90;51.50;;;;;;4107493;28;20089;-63
2022/09/04 06:14:46;;;;;;;0.00;0.00;;;22.90;52.30;;;;;;4083661;28;20061;-63
2022/09/04 06:18:06;;;;;;;0.00;0.00;;;22.90;56.10;;;;;;4104197;28;20136;-63
2022/09/04 06:22:17;;;;;;;0.70;0.70;;;23.00;58.40;;;;;;4112493;28;20103;-62
2022/09/04 06:25:42;;;;;;;0.00;0.00;;;23.00;57.60;;;;;;4107180;28;20065;-63
2022/09/04 06:29:50;;;;;;;0.25;0.25;;;23.00;56.00;;;;;;4126675;28;20054;-62
2022/09/04 06:33:20;;;;;;;0.57;0.57;;;23.00;54.90;;;;;;4151717;28;20104;-62
2022/09/04 06:36:48;;;;;;;0.10;0.10;;;22.90;54.30;;;;;;4135112;28;20045;-61
2022/09/04 06:40:08;;;;;;;0.10;0.10;;;22.90;54.00;;;;;;4143779;28;20119;-62
2022/09/04 06:47:15;;;;;;;2.95;1.60;;;22.90;53.60;;;;;;4138178;28;20170;-62
2022/09/04 06:50:32;;;;;;;0.00;0.00;;;22.90;53.40;;;;;;4127337;28;20095;-62
2022/09/04 06:53:53;;;;;;;1.00;1.00;;;22.90;52.90;;;;;;4119766;28;20475;-62
2022/09/04 06:57:01;;;;;;;0.00;0.00;;;22.90;53.10;;;;;;4143452;28;20056;-63
2022/09/04 07:00:22;;;;;;;0.10;0.10;;;22.90;52.90;;;;;;4131714;28;20080;-64
2022/09/04 07:03:35;;;;;;;0.00;0.00;;;22.90;52.90;;;;;;4119704;28;20143;-63
2022/09/04 07:06:51;;;;;;;1.48;0.38;;;22.90;52.90;;;;;;4117507;28;20056;-63
2022/09/04 07:09:42;;;;;;;0.00;0.00;;;22.90;52.80;;;;;;4141845;28;20207;-64
2022/09/04 07:13:02;;;;;;;0.10;0.10;;;22.80;52.70;;;;;;4155013;28;20550;-62
2022/09/04 07:16:35;;;;;;;0.00;0.00;;;22.90;52.80;;;;;;4122106;28;20060;-62
2022/09/04 07:19:39;;;;;;;0.00;0.00;;;22.90;52.70;;;;;;4134583;28;20168;-62
2022/09/04 07:22:56;;;;;;;0.00;0.00;;;22.90;52.70;;;;;;4155787;28;20614;-64
2022/09/04 07:26:18;;;;;;;0.00;0.00;;;23.00;52.40;;;;;;4138285;28;20134;-62
2022/09/04 07:29:57;;;;;;;0.03;0.03;;;23.00;52.50;;;;;;4130801;28;20052;-62
2022/09/04 07:32:54;;;;;;;0.00;0.00;;;23.10;52.80;;;;;;4134277;28;20055;-62
2022/09/04 07:36:27;;;;;;;0.57;0.57;;;23.20;52.80;;;;;;4147789;28;20080;-63
2022/09/04 07:39:25;;;;;;;0.38;0.38;;;23.20;52.90;;;;;;4109714;28;20057;-64
2022/09/04 07:42:28;;;;;;;0.00;0.00;;;23.30;52.80;;;;;;4134712;28;20134;-63
2022/09/04 07:45:35;;;;;;;0.00;0.00;;;23.40;52.80;;;;;;4138640;28;20115;-62
2022/09/04 07:51:36;;;;;;;0.00;0.00;;;23.40;53.00;;;;;;4137043;28;20060;-63
2022/09/04 07:54:42;;;;;;;0.00;0.00;;;23.50;52.80;;;;;;4128788;28;20124;-64
2022/09/04 07:58:36;;;;;;;0.10;0.10;;;23.50;52.90;;;;;;4144981;28;20298;-63
2022/09/04 08:01:49;;;;;;;0.00;0.00;;;23.50;52.60;;;;;;4100232;28;20540;-62
2022/09/04 08:08:37;;;;;;;0.00;0.00;;;23.60;52.40;;;;;;4136002;28;20404;-63
2022/09/04 08:11:44;;;;;;;0.00;0.00;;;23.60;52.20;;;;;;4139975;28;20057;-64
2022/09/04 08:14:51;;;;;;;0.00;0.00;;;23.60;52.30;;;;;;4117206;28;20076;-63
2022/09/04 08:17:52;;;;;;;0.00;0.00;;;23.60;52.30;;;;;;4121392;28;20060;-64
2022/09/04 08:21:02;;;;;;;0.00;0.00;;;23.60;52.20;;;;;;4120061;28;20104;-64
2022/09/04 08:24:34;;;;;;;0.00;0.00;;;23.70;52.10;;;;;;4140872;28;20065;-63
2022/09/04 08:28:03;;;;;;;0.00;0.00;;;23.70;52.10;;;;;;4138409;28;20056;-63
2022/09/04 08:31:43;;;;;;;0.00;0.00;;;23.80;52.00;;;;;;4124179;28;20060;-63
2022/09/04 08:35:24;;;;;;;0.10;0.10;;;23.80;52.00;;;;;;4118736;28;20065;-64
2022/09/04 08:38:43;;;;;;;1.88;1.08;;;23.80;51.70;;;;;;4139462;28;20045;-64
2022/09/04 08:42:13;;;;;;;0.00;0.00;;;23.80;51.80;;;;;;4118037;28;20178;-63
2022/09/04 08:45:38;;;;;;;0.00;0.00;;;23.80;51.70;;;;;;4120370;28;20060;-63
2022/09/04 08:49:19;;;;;;;0.00;0.00;;;23.90;51.80;;;;;;4135588;28;20134;-63
2022/09/04 08:52:38;;;;;;;0.00;0.00;;;23.90;51.60;;;;;;4162417;28;20507;-62
2022/09/04 09:03:34;;;;;;;0.00;0.00;;;24.00;51.70;;;;;;4152425;28;20510;-64
2022/09/04 09:07:02;;;;;;;13.40;1.02;;;24.00;51.60;;;;;;4052511;29;20164;-62
2022/09/04 09:10:16;;;;;;;0.22;0.22;;;24.10;51.60;;;;;;4041308;29;20056;-64
2022/09/04 09:13:51;;;;;;;0.00;0.00;;;24.10;51.70;;;;;;4097001;28;20417;-63
2022/09/04 09:17:28;;;;;;;0.52;0.52;;;24.10;51.70;;;;;;4130173;28;20516;-63
2022/09/04 09:20:29;;;;;;;0.00;0.00;;;24.10;51.50;;;;;;4134088;28;20136;-63
2022/09/04 09:23:40;;;;;;;0.88;0.45;;;24.20;51.40;;;;;;4141224;28;20138;-63
2022/09/04 09:26:43;;;;;;;0.00;0.00;;;24.20;51.20;;;;;;4119961;28;20187;-64
2022/09/04 09:30:06;;;;;;;0.20;0.20;;;24.20;51.20;;;;;;4118942;28;20175;-64
2022/09/04 09:33:30;;;;;;;0.20;0.20;;;24.20;51.10;;;;;;4137687;28;20056;-64
2022/09/04 09:36:35;;;;;;;0.00;0.00;;;24.30;51.20;;;;;;4136801;28;20059;-63
2022/09/04 09:39:42;;;;;;;0.15;0.15;;;24.30;51.30;;;;;;4143596;28;20156;-63
2022/09/04 09:43:00;;;;;;;0.25;0.25;;;24.30;51.30;;;;;;4155699;28;20044;-63
2022/09/04 09:46:28;;;;;;;2.78;0.98;;;24.30;51.30;;;;;;4154272;28;20059;-62
2022/09/04 09:49:47;;;;;;;0.00;0.00;;;24.40;51.20;;;;;;4152391;28;20059;-64
2022/09/04 09:53:01;;;;;;;0.52;0.52;;;24.50;51.20;;;;;;4157620;28;20060;-64
2022/09/04 09:56:16;;;;;;;0.00;0.00;;;24.50;51.10;;;;;;4143421;28;20072;-64
2022/09/04 09:59:26;;;;;;;0.00;0.00;;;24.50;51.10;;;;;;4153891;28;20107;-63
2022/09/04 10:02:31;;;;;;;0.20;0.20;;;24.50;50.90;;;;;;4160954;28;20056;-63
2022/09/04 10:05:42;;;;;;;0.40;0.40;;;24.50;50.90;;;;;;4122254;28;20067;-62
2022/09/04 10:08:50;;;;;;;0.60;0.60;;;24.60;50.80;;;;;;4154337;28;20052;-62
2022/09/04 10:11:54;;;;;;;0.00;0.00;;;24.60;50.80;;;;;;4146249;28;20401;-64
2022/09/04 10:15:02;;;;;;;0.00;0.00;;;24.60;50.70;;;;;;4142353;28;20402;-63
2022/09/04 10:18:14;;;;;;;0.10;0.10;;;24.70;50.80;;;;;;4144639;28;20154;-62
2022/09/04 10:21:19;;;;;;;2.42;1.10;;;24.70;50.70;;;;;;4157679;28;20538;-63
2022/09/04 10:24:28;;;;;;;0.20;0.20;;;24.80;50.60;;;;;;4155535;28;20065;-68
2022/09/04 10:27:39;;;;;;;0.00;0.00;;;24.80;50.70;;;;;;4164227;28;20562;-69
2022/09/04 10:30:30;;;;;;;0.63;0.63;;;24.80;50.50;;;;;;4173225;28;20060;-69
2022/09/04 10:33:37;;;;;;;0.00;0.00;;;24.80;50.40;;;;;;4145785;28;20049;-67
2022/09/04 10:36:29;;;;;;;0.10;0.10;;;24.90;50.40;;;;;;4141991;28;20053;-68
2022/09/04 10:42:35;;;;;;;0.25;0.25;;;25.00;50.10;;;;;;4143427;28;20073;-68
2022/09/04 10:45:26;;;;;;;0.10;0.10;;;25.00;50.00;;;;;;4156531;28;20060;-70
2022/09/04 10:48:48;;;;;;;0.00;0.00;;;25.10;50.00;;;;;;4156066;28;20049;-68
2022/09/04 10:51:55;;;;;;;0.03;0.03;;;25.10;49.90;;;;;;4154490;28;20048;-68
2022/09/04 10:55:03;;;;;;;0.00;0.00;;;25.10;49.60;;;;;;4157762;28;20622;-68
2022/09/04 10:58:15;;;;;;;0.00;0.00;;;25.20;49.60;;;;;;4157041;28;20052;-68
2022/09/04 11:01:22;;;;;;;0.00;0.00;;;25.20;49.60;;;;;;4151632;28;20056;-70
2022/09/04 11:04:48;;;;;;;0.00;0.00;;;25.20;49.30;;;;;;4146145;28;20144;-68
2022/09/04 11:07:59;;;;;;;0.40;0.40;;;25.30;49.40;;;;;;4148029;28;20060;-67
2022/09/04 11:10:59;;;;;;;0.00;0.00;;;25.30;49.40;;;;;;4146074;28;20519;-68
2022/09/04 11:14:02;;;;;;;0.00;0.00;;;25.30;49.30;;;;;;4158544;28;20084;-67
2022/09/04 11:17:29;;;;;;;0.03;0.03;;;25.30;49.20;;;;;;4156167;28;20048;-70
2022/09/04 11:20:43;;;;;;;0.00;0.00;;;25.30;49.30;;;;;;4168157;28;20443;-68
2022/09/04 11:24:03;;;;;;;0.10;0.10;;;25.30;49.50;;;;;;4147057;28;20412;-69
2022/09/04 11:27:28;;;;;;;0.00;0.00;;;25.40;49.40;;;;;;4157734;28;20064;-69
2022/09/04 11:30:16;;;;;;;0.00;0.00;;;25.40;49.40;;;;;;4174534;28;20107;-68
2022/09/04 11:33:36;;;;;;;0.00;0.00;;;25.40;49.30;;;;;;4164097;28;20106;-67
2022/09/04 11:36:57;;;;;;;0.00;0.00;;;25.40;49.30;;;;;;4155468;28;20061;-67
2022/09/04 11:40:05;;;;;;;0.08;0.08;;;25.50;49.30;;;;;;4158222;28;20049;-69
2022/09/04 11:43:06;;;;;;;0.00;0.00;;;25.50;49.20;;;;;;4147370;28;20819;-68
2022/09/04 11:46:26;;;;;;;0.00;0.00;;;25.60;49.10;;;;;;4156532;28;20126;-68
2022/09/04 11:49:43;;;;;;;0.10;0.10;;;25.60;49.00;;;;;;4173676;28;20087;-68
2022/09/04 11:52:46;;;;;;;0.05;0.05;;;25.60;49.00;;;;;;4163081;28;20621;-68
2022/09/04 11:55:59;;;;;;;0.00;0.00;;;25.60;48.70;;;;;;4146376;28;20127;-69
2022/09/04 11:59:20;;;;;;;0.00;0.00;;;25.60;48.70;;;;;;4145565;28;20078;-69
2022/09/04 12:02:39;;;;;;;0.22;0.22;;;25.70;48.90;;;;;;4111253;28;20104;-69
2022/09/04 12:05:43;;;;;;;0.00;0.00;;;25.70;48.90;;;;;;4143078;28;20053;-68
2022/09/04 12:08:52;;;;;;;0.10;0.10;;;25.70;48.70;;;;;;4150016;28;20064;-68
2022/09/04 12:12:13;;;;;;;0.00;0.00;;;25.70;48.70;;;;;;4141032;28;20076;-70
2022/09/04 12:15:23;;;;;;;0.00;0.00;;;25.70;48.50;;;;;;4142570;28;20111;-69
2022/09/04 12:18:44;;;;;;;0.30;0.22;;;25.80;48.50;;;;;;4144479;28;20156;-67
2022/09/04 12:22:01;;;;;;;0.10;0.10;;;25.80;48.50;;;;;;4148383;28;20083;-70
2022/09/04 12:25:28;;;;;;;0.00;0.00;;;25.80;48.50;;;;;;4139294;28;20412;-68
2022/09/04 12:28:43;;;;;;;0.30;0.30;;;25.80;48.40;;;;;;4121711;28;20414;-69
2022/09/04 12:31:59;;;;;;;0.43;0.43;;;25.90;49.10;;;;;;4162978;28;20049;-69
2022/09/04 12:35:07;;;;;;;0.05;0.05;;;25.90;48.40;;;;;;4160960;28;20051;-70
2022/09/04 12:38:26;;;;;;;0.08;0.08;;;25.90;48.20;;;;;;4152880;28;20056;-69
2022/09/04 12:41:15;;;;;;;0.00;0.00;;;25.90;48.10;;;;;;4164049;28;20484;-70
2022/09/04 12:44:08;;;;;;;0.00;0.00;;;26.00;48.20;;;;;;4157267;28;20051;-69
2022/09/04 12:47:00;;;;;;;0.00;0.00;;;26.00;47.80;;;;;;4153213;28;20059;-69
2022/09/04 12:50:09;;;;;;;0.00;0.00;;;26.00;47.70;;;;;;4152892;28;20056;-69
2022/09/04 12:53:18;;;;;;;0.10;0.10;;;26.00;47.70;;;;;;4118785;28;20049;-70
2022/09/04 12:56:10;;;;;;;0.10;0.10;;;26.00;47.80;;;;;;4141122;28;20052;-70
2022/09/04 12:59:11;;;;;;;0.00;0.00;;;26.00;47.80;;;;;;4157471;28;20056;-70
2022/09/04 13:02:03;;;;;;;0.00;0.00;;;26.10;47.90;;;;;;4149113;28;20064;-69
2022/09/04 13:04:56;;;;;;;0.00;0.00;;;26.10;47.90;;;;;;4165494;28;20055;-69
2022/09/04 13:07:49;;;;;;;0.08;0.08;;;26.10;47.90;;;;;;4165090;28;20513;-69
2022/09/04 13:10:36;;;;;;;0.00;0.00;;;26.10;47.90;;;;;;4166095;28;20607;-69
2022/09/04 13:13:26;;;;;;;0.00;0.00;;;26.10;47.90;;;;;;4162988;28;20044;-70
2022/09/04 13:16:14;;;;;;;0.20;0.20;;;26.20;48.00;;;;;;4153191;28;20127;-71
2022/09/04 13:19:10;;;;;;;0.00;0.00;;;26.20;48.00;;;;;;4163204;28;20056;-70
2022/09/04 13:22:08;;;;;;;0.10;0.10;;;26.20;47.80;;;;;;4165921;28;20137;-70
2022/09/04 13:25:03;;;;;;;0.00;0.00;;;26.20;47.80;;;;;;4164877;28;20126;-70
2022/09/04 13:27:57;;;;;;;0.20;0.20;;;26.30;47.80;;;;;;4152422;28;20103;-71
2022/09/04 13:30:47;;;;;;;0.40;0.40;;;26.30;47.80;;;;;;4164971;28;20052;-70
2022/09/04 13:33:43;;;;;;;0.15;0.15;;;26.30;47.70;;;;;;4165175;28;20063;-70
2022/09/04 13:36:37;;;;;;;0.00;0.00;;;26.40;47.60;;;;;;4165331;28;20155;-70
2022/09/04 13:39:59;;;;;;;0.00;0.00;;;26.40;47.60;;;;;;4166134;28;20055;-70
2022/09/04 13:43:28;;;;;;;0.00;0.00;;;26.40;47.70;;;;;;4088399;28;20592;-70
2022/09/04 13:46:14;;;;;;;0.00;0.00;;;26.40;47.40;;;;;;4163305;28;20515;-70
2022/09/04 13:48:59;;;;;;;0.15;0.15;;;26.40;47.50;;;;;;4153982;28;20125;-69
2022/09/04 13:51:46;;;;;;;2.92;1.02;;;26.40;47.30;;;;;;4165723;28;20060;-69
2022/09/04 13:54:33;;;;;;;0.00;0.00;;;26.50;47.40;;;;;;4165056;28;20138;-70
2022/09/04 13:57:20;;;;;;;0.00;0.00;;;26.40;47.40;;;;;;4164103;28;20052;-69
2022/09/04 14:00:06;;;;;;;0.00;0.00;;;26.50;47.40;;;;;;4152524;28;20539;-69
2022/09/04 14:02:54;;;;;;;0.35;0.35;;;26.50;47.50;;;;;;4148667;28;20053;-69
2022/09/04 14:05:37;;;;;;;0.00;0.00;;;26.50;47.60;;;;;;4151954;28;20519;-69
2022/09/04 14:08:19;;;;;;;0.25;0.25;;;26.60;47.40;;;;;;4146616;28;20068;-69
2022/09/04 14:11:24;;;;;;;0.00;0.00;;;26.60;47.60;;;;;;4165492;28;20044;-70
2022/09/04 14:14:40;;;;;;;0.00;0.00;;;26.60;47.80;;;;;;4165144;28;20052;-70
2022/09/04 14:17:29;;;;;;;0.00;0.00;;;26.60;47.60;;;;;;4165155;28;20052;-69
2022/09/04 14:20:15;;;;;;;0.00;0.00;;;26.60;47.60;;;;;;4163049;28;20198;-69
2022/09/04 14:23:11;;;;;;;0.00;0.00;;;26.60;47.60;;;;;;4140959;28;20051;-68
2022/09/04 14:25:56;;;;;;;0.00;0.00;;;26.60;47.60;;;;;;4165387;28;20052;-69
2022/09/04 14:28:47;;;;;;;0.00;0.00;;;26.70;47.50;;;;;;4157461;28;20520;-72
2022/09/04 14:31:35;;;;;;;0.20;0.20;;;26.70;47.40;;;;;;4164561;28;20055;-71
2022/09/04 14:34:25;;;;;;;0.08;0.08;;;26.70;47.30;;;;;;4164328;28;20195;-70
2022/09/04 14:37:17;;;;;;;0.00;0.00;;;26.70;47.30;;;;;;4166976;28;20061;-70
2022/09/04 14:40:04;;;;;;;0.00;0.00;;;26.70;47.40;;;;;;4167569;28;20060;-69
2022/09/04 14:42:49;;;;;;;0.93;0.93;;;26.70;46.70;;;;;;4170143;28;20106;-70
2022/09/04 14:45:51;;;;;;;0.00;0.00;;;26.80;47.20;;;;;;4152543;28;20091;-70
2022/09/04 14:48:39;;;;;;;0.00;0.00;;;26.80;47.40;;;;;;4168225;28;20537;-70
2022/09/04 14:51:34;;;;;;;0.00;0.00;;;26.80;47.30;;;;;;4168054;28;20058;-69
2022/09/04 14:54:24;;;;;;;0.00;0.00;;;26.80;47.50;;;;;;4163025;28;20064;-69
2022/09/04 14:57:16;;;;;;;0.00;0.00;;;26.80;47.60;;;;;;4155773;28;20056;-70
2022/09/04 15:00:01;;;;;;;;;;;26.80;47.60;;;;;;4168483;28;20048;-70
2022/09/04 15:02:49;;;;;;;0.22;0.22;;;26.80;47.50;;;;;;4168043;28;19970;-70
2022/09/04 15:05:35;;;;;;;0.00;0.00;;;26.80;47.50;;;;;;4166936;28;20059;-70
2022/09/04 15:08:28;;;;;;;0.00;0.00;;;26.80;47.70;;;;;;4163921;28;20055;-69
2022/09/04 15:11:12;;;;;;;0.20;0.20;;;26.80;47.70;;;;;;4162963;28;20044;-69
2022/09/04 15:13:58;;;;;;;0.00;0.00;;;26.80;47.60;;;;;;4176863;28;20063;-70
2022/09/04 15:16:49;;;;;;;0.00;0.00;;;26.90;47.60;;;;;;4176445;28;20561;-71
2022/09/04 15:19:45;;;;;;;1.08;0.75;;;26.90;47.30;;;;;;4158822;28;20163;-70
2022/09/04 15:22:36;;;;;;;0.00;0.00;;;26.90;47.60;;;;;;4147255;28;20044;-70
2022/09/04 15:25:40;;;;;;;0.47;0.30;;;26.90;47.00;;;;;;4166664;28;20098;-70
2022/09/04 15:28:44;;;;;;;0.10;0.10;;;26.90;47.40;;;;;;4163534;28;20065;-71
2022/09/04 15:31:35;;;;;;;0.00;0.00;;;26.90;47.50;;;;;;4155474;28;20589;-70
2022/09/04 15:34:21;;;;;;;0.00;0.00;;;26.90;47.50;;;;;;4163937;28;20048;-70
2022/09/04 15:37:18;;;;;;;0.30;0.30;;;26.90;47.60;;;;;;4168249;28;20439;-72
2022/09/04 15:40:09;;;;;;;0.00;0.00;;;26.90;47.70;;;;;;4158477;28;20052;-67
2022/09/04 15:43:03;;;;;;;0.00;0.00;;;26.90;47.20;;;;;;4164922;28;20148;-67
2022/09/04 15:45:56;;;;;;;0.00;0.00;;;26.90;47.50;;;;;;4161583;28;20067;-64
2022/09/04 15:48:52;;;;;;;0.00;0.00;;;27.00;47.70;;;;;;4163390;28;20059;-66
2022/09/04 15:51:43;;;;;;;0.00;0.00;;;27.00;47.80;;;;;;4158804;28;20060;-66
2022/09/04 15:54:55;;;;;;;0.00;0.00;;;27.00;47.50;;;;;;4150536;28;20097;-66
2022/09/04 15:57:54;;;;;;;0.20;0.10;;;27.00;47.20;;;;;;4153253;28;20052;-65
2022/09/04 16:00:39;;;;;;;0.28;0.22;;;27.00;47.10;;;;;;4154258;28;20408;-69
2022/09/04 16:03:29;;;;;;;0.03;0.03;;;27.00;47.20;;;;;;4163855;28;20135;-68
2022/09/04 16:06:18;;;;;;;0.80;0.80;;;27.10;46.60;;;;;;4164665;28;20060;-67
2022/09/04 16:09:03;;;;;;;0.00;0.00;;;27.10;47.10;;;;;;4166135;28;20060;-67
2022/09/04 16:11:54;;;;;;;0.10;0.10;;;27.10;47.10;;;;;;4168329;28;20190;-68
2022/09/04 16:14:44;;;;;;;0.32;0.32;;;27.10;47.30;;;;;;4168378;28;20053;-68
2022/09/04 16:17:27;;;;;;;0.00;0.00;;;27.10;47.00;;;;;;4150940;28;20069;-69
2022/09/04 16:20:19;;;;;;;0.00;0.00;;;27.10;47.20;;;;;;4157211;28;20048;-65
2022/09/04 16:23:02;;;;;;;;;;;27.10;47.80;;;;;;4163067;28;20060;-65
2022/09/04 16:25:50;;;;;;;0.00;0.00;;;27.10;47.40;;;;;;4166787;28;19932;-67
2022/09/04 16:28:39;;;;;;;0.00;0.00;;;27.10;47.50;;;;;;4163420;28;20107;-65
2022/09/04 16:31:30;;;;;;;0.00;0.00;;;27.00;46.90;;;;;;4168333;28;20052;-67
2022/09/04 16:34:19;;;;;;;0.20;0.20;;;27.00;46.90;;;;;;4162674;28;20175;-69
2022/09/04 16:37:11;;;;;;;0.00;0.00;;;27.00;47.10;;;;;;4155397;28;20057;-65
2022/09/04 16:40:03;;;;;;;3.40;1.38;;;27.00;47.20;;;;;;4160415;28;20056;-65
2022/09/04 16:42:50;;;;;;;0.00;0.00;;;27.00;47.20;;;;;;4161208;28;20047;-67
2022/09/04 16:45:40;;;;;;;0.00;0.00;;;27.00;47.10;;;;;;4160452;28;20051;-65
2022/09/04 16:48:30;;;;;;;0.47;0.47;;;27.00;47.50;;;;;;4162756;28;20055;-65
2022/09/04 16:51:28;;;;;;;0.00;0.00;;;26.90;47.30;;;;;;4155329;28;20126;-65
2022/09/04 16:54:34;;;;;;;3.40;1.90;;;26.90;47.40;;;;;;4148570;28;20059;-65
2022/09/04 16:57:20;;;;;;;0.00;0.00;;;26.90;47.20;;;;;;4140197;28;20128;-67
2022/09/04 17:00:08;;;;;;;4.90;0.40;;;26.90;47.50;;;;;;4161116;28;20051;-68
2022/09/04 17:02:55;;;;;;;0.00;0.00;;;26.90;47.50;;;;;;4149058;28;20102;-68
2022/09/04 17:05:48;;;;;;;0.17;0.17;;;26.80;47.50;;;;;;4160970;28;21637;-66
2022/09/04 17:08:34;;;;;;;0.40;0.40;;;26.80;47.60;;;;;;4164825;28;20090;-66
2022/09/04 17:11:23;;;;;;;0.15;0.15;;;26.80;47.60;;;;;;4153389;28;20052;-66
2022/09/04 17:14:15;;;;;;;0.00;0.00;;;26.80;47.60;;;;;;4164797;28;20071;-66
2022/09/04 17:17:05;;;;;;;0.13;0.13;;;26.80;47.90;;;;;;4156974;28;20096;-68
2022/09/04 17:20:01;;;;;;;0.00;0.00;;;26.70;47.80;;;;;;4151729;28;20206;-67
2022/09/04 17:22:49;;;;;;;0.00;0.00;;;26.70;48.00;;;;;;4164681;28;20060;-67
2022/09/04 17:25:56;;;;;;;0.00;0.00;;;26.70;48.20;;;;;;4161741;28;20534;-67
2022/09/04 17:29:04;;;;;;;0.05;0.05;;;26.60;48.00;;;;;;4165051;28;20172;-67
2022/09/04 17:32:13;;;;;;;0.20;0.20;;;26.60;48.20;;;;;;4163135;28;20784;-67
2022/09/04 17:35:17;;;;;;;0.00;0.00;;;26.60;48.20;;;;;;4153110;28;20060;-66
2022/09/04 17:38:24;;;;;;;0.00;0.00;;;26.60;48.50;;;;;;4166711;28;20187;-66
2022/09/04 17:41:35;;;;;;;0.00;0.00;;;26.50;48.60;;;;;;4164952;28;20587;-68
2022/09/04 17:44:46;;;;;;;0.00;0.00;;;26.50;48.60;;;;;;4167459;28;20060;-67